createdAt,value
2018-09-26T00:03:16.496Z,7.60
2018-09-26T00:03:54.026Z,7.50
2018-09-26T00:04:30.043Z,7.40
2018-09-26T00:05:04.173Z,7.40
2018-09-26T00:05:38.362Z,7.40
2018-09-26T00:06:12.505Z,7.40
2018-09-26T00:06:46.677Z,7.40
2018-09-26T00:07:21.151Z,7.40
2018-09-26T00:07:55.303Z,7.40
2018-09-26T00:08:29.451Z,7.40
2018-09-26T00:09:04.369Z,7.40
2018-09-26T00:09:38.524Z,7.40
2018-09-26T00:10:12.637Z,7.40
2018-09-26T00:10:47.209Z,7.40
2018-09-26T00:11:21.351Z,7.40
2018-09-26T00:11:55.812Z,7.50
2018-09-26T00:12:30.607Z,7.50
2018-09-26T00:13:04.857Z,7.50
2018-09-26T00:13:39.347Z,7.50
2018-09-26T00:14:13.859Z,7.50
2018-09-26T00:14:47.989Z,7.50
2018-09-26T00:15:22.153Z,7.50
2018-09-26T00:15:56.639Z,7.50
2018-09-26T00:16:30.738Z,7.50
2018-09-26T00:17:05.451Z,7.50
2018-09-26T00:17:39.887Z,7.40
2018-09-26T00:18:14.022Z,7.50
2018-09-26T00:18:48.156Z,7.50
2018-09-26T00:19:22.294Z,7.50
2018-09-26T00:19:56.785Z,7.50
2018-09-26T00:20:30.903Z,7.50
2018-09-26T00:21:05.426Z,7.50
2018-09-26T00:21:39.630Z,7.50
2018-09-26T00:22:13.778Z,7.50
2018-09-26T00:22:47.928Z,7.50
2018-09-26T00:23:22.043Z,7.50
2018-09-26T00:23:56.558Z,7.50
2018-09-26T00:24:30.895Z,7.50
2018-09-26T00:25:05.032Z,7.50
2018-09-26T00:25:39.497Z,7.50
2018-09-26T00:26:14.005Z,7.50
2018-09-26T00:26:48.127Z,7.50
2018-09-26T00:27:22.264Z,7.50
2018-09-26T00:27:56.531Z,7.50
2018-09-26T00:28:30.667Z,7.50
2018-09-26T00:29:05.269Z,7.50
2018-09-26T00:29:39.759Z,7.50
2018-09-26T00:30:13.885Z,7.50
2018-09-26T00:30:48.045Z,7.50
2018-09-26T00:31:22.665Z,7.50
2018-09-26T00:31:56.777Z,7.50
2018-09-26T00:32:31.221Z,7.50
2018-09-26T00:33:05.595Z,7.50
2018-09-26T00:33:39.781Z,7.50
2018-09-26T00:34:13.933Z,7.50
2018-09-26T00:34:48.080Z,7.50
2018-09-26T00:35:22.217Z,7.50
2018-09-26T00:35:56.429Z,7.50
2018-09-26T00:36:32.000Z,7.50
2018-09-26T00:37:06.506Z,7.50
2018-09-26T00:37:40.664Z,7.50
2018-09-26T00:38:15.014Z,7.50
2018-09-26T00:38:49.392Z,7.50
2018-09-26T00:39:23.522Z,7.50
2018-09-26T00:39:57.669Z,7.50
2018-09-26T00:40:31.785Z,7.50
2018-09-26T00:41:06.016Z,7.50
2018-09-26T00:41:40.386Z,7.50
2018-09-26T00:42:14.856Z,7.50
2018-09-26T00:42:48.979Z,7.50
2018-09-26T00:43:23.188Z,7.50
2018-09-26T00:43:57.704Z,7.50
2018-09-26T00:44:31.947Z,7.50
2018-09-26T00:45:06.110Z,7.50
2018-09-26T00:45:40.296Z,7.50
2018-09-26T00:46:14.497Z,7.50
2018-09-26T00:46:48.986Z,7.50
2018-09-26T00:47:23.824Z,7.50
2018-09-26T00:47:57.970Z,7.50
2018-09-26T00:48:32.126Z,7.50
2018-09-26T00:49:06.689Z,7.50
2018-09-26T00:49:40.827Z,7.50
2018-09-26T00:50:15.054Z,7.50
2018-09-26T00:50:49.563Z,7.50
2018-09-26T00:51:23.712Z,7.50
2018-09-26T00:51:58.202Z,7.50
2018-09-26T00:52:32.348Z,7.50
2018-09-26T00:53:06.527Z,7.50
2018-09-26T00:53:40.676Z,7.50
2018-09-26T00:54:14.898Z,7.50
2018-09-26T00:54:49.077Z,7.50
2018-09-26T00:55:23.270Z,7.50
2018-09-26T00:55:57.528Z,7.50
2018-09-26T00:56:31.711Z,7.50
2018-09-26T00:57:06.858Z,7.50
2018-09-26T00:57:41.367Z,7.50
2018-09-26T00:58:15.582Z,7.50
2018-09-26T00:58:50.050Z,7.50
2018-09-26T00:59:24.564Z,7.50
2018-09-26T00:59:58.721Z,7.50
2018-09-26T01:00:32.892Z,7.50
2018-09-26T01:01:07.412Z,7.50
2018-09-26T01:01:41.611Z,7.50
2018-09-26T01:02:15.855Z,7.50
2018-09-26T01:02:49.985Z,7.50
2018-09-26T01:03:24.206Z,7.50
2018-09-26T01:03:58.449Z,7.50
2018-09-26T01:04:32.586Z,7.50
2018-09-26T01:05:06.789Z,7.50
2018-09-26T01:05:40.924Z,7.50
2018-09-26T01:06:15.092Z,7.50
2018-09-26T01:06:49.318Z,7.50
2018-09-26T01:07:23.490Z,7.50
2018-09-26T01:07:57.662Z,7.50
2018-09-26T01:08:31.809Z,7.50
2018-09-26T01:09:07.898Z,7.50
2018-09-26T01:09:42.036Z,7.50
2018-09-26T01:10:16.527Z,7.50
2018-09-26T01:10:50.747Z,7.50
2018-09-26T01:11:24.928Z,7.50
2018-09-26T01:11:59.158Z,7.50
2018-09-26T01:12:33.315Z,7.50
2018-09-26T01:13:07.798Z,7.50
2018-09-26T01:13:41.936Z,7.50
2018-09-26T01:14:16.065Z,7.50
2018-09-26T01:14:50.240Z,7.50
2018-09-26T01:15:24.428Z,7.50
2018-09-26T01:15:58.564Z,7.50
2018-09-26T01:16:33.104Z,7.50
2018-09-26T01:17:07.277Z,7.50
2018-09-26T01:17:41.414Z,7.50
2018-09-26T01:18:15.540Z,7.50
2018-09-26T01:18:50.042Z,7.50
2018-09-26T01:19:24.244Z,7.50
2018-09-26T01:19:58.362Z,7.50
2018-09-26T01:20:32.492Z,7.50
2018-09-26T01:21:06.738Z,7.50
2018-09-26T01:21:40.894Z,7.50
2018-09-26T01:22:15.039Z,7.50
2018-09-26T01:22:49.194Z,7.50
2018-09-26T01:23:23.352Z,7.50
2018-09-26T01:23:57.470Z,7.50
2018-09-26T01:24:31.652Z,7.50
2018-09-26T01:25:06.578Z,7.60
2018-09-26T01:25:41.758Z,7.60
2018-09-26T01:26:16.254Z,7.60
2018-09-26T01:26:50.452Z,7.60
2018-09-26T01:27:24.607Z,7.60
2018-09-26T01:27:58.720Z,7.60
2018-09-26T01:28:33.206Z,7.60
2018-09-26T01:29:07.936Z,7.60
2018-09-26T01:29:42.072Z,7.60
2018-09-26T01:30:16.222Z,7.60
2018-09-26T01:30:50.340Z,7.60
2018-09-26T01:31:24.491Z,7.60
2018-09-26T01:31:58.642Z,7.60
2018-09-26T01:32:33.217Z,7.70
2018-09-26T01:33:07.388Z,7.60
2018-09-26T01:33:41.514Z,7.60
2018-09-26T01:34:15.703Z,7.70
2018-09-26T01:34:49.852Z,7.70
2018-09-26T01:35:23.965Z,7.60
2018-09-26T01:35:58.214Z,7.70
2018-09-26T01:36:32.324Z,7.70
2018-09-26T01:37:07.139Z,7.70
2018-09-26T01:37:41.308Z,7.60
2018-09-26T01:38:15.589Z,7.70
2018-09-26T01:38:49.777Z,7.70
2018-09-26T01:39:24.006Z,7.70
2018-09-26T01:39:59.088Z,7.70
2018-09-26T01:40:33.594Z,7.70
2018-09-26T01:41:08.026Z,7.70
2018-09-26T01:41:42.234Z,7.70
2018-09-26T01:42:16.458Z,7.70
2018-09-26T01:42:50.590Z,7.70
2018-09-26T01:43:24.754Z,7.70
2018-09-26T01:43:59.230Z,7.70
2018-09-26T01:44:33.426Z,7.70
2018-09-26T01:45:07.572Z,7.80
2018-09-26T01:45:42.038Z,7.70
2018-09-26T01:46:19.518Z,7.80
2018-09-26T01:46:54.036Z,7.80
2018-09-26T01:47:28.225Z,7.80
2018-09-26T01:48:02.750Z,7.80
2018-09-26T01:48:36.906Z,7.80
2018-09-26T01:49:11.062Z,7.80
2018-09-26T01:49:45.208Z,7.80
2018-09-26T01:50:19.698Z,7.90
2018-09-26T01:50:54.172Z,7.90
2018-09-26T01:51:28.682Z,7.90
2018-09-26T01:52:02.806Z,7.90
2018-09-26T01:52:37.004Z,7.90
2018-09-26T01:53:11.168Z,7.90
2018-09-26T01:53:45.352Z,7.90
2018-09-26T01:54:19.510Z,8.00
2018-09-26T01:54:53.673Z,8.00
2018-09-26T01:55:28.192Z,8.00
2018-09-26T01:56:02.694Z,8.00
2018-09-26T01:56:37.183Z,8.00
2018-09-26T01:57:11.345Z,8.00
2018-09-26T01:57:46.109Z,8.00
2018-09-26T01:58:20.297Z,8.00
2018-09-26T01:58:54.476Z,8.00
2018-09-26T01:59:28.614Z,8.00
2018-09-26T02:00:03.126Z,8.00
2018-09-26T02:00:37.314Z,8.10
2018-09-26T02:01:11.468Z,8.10
2018-09-26T02:01:46.350Z,8.10
2018-09-26T02:02:20.556Z,8.10
2018-09-26T02:02:54.754Z,8.10
2018-09-26T02:03:28.954Z,8.10
2018-09-26T02:04:03.460Z,8.10
2018-09-26T02:04:37.954Z,8.10
2018-09-26T02:05:12.157Z,8.10
2018-09-26T02:05:46.685Z,8.10
2018-09-26T02:06:20.856Z,8.10
2018-09-26T02:06:55.028Z,8.10
2018-09-26T02:07:29.491Z,8.20
2018-09-26T02:08:03.880Z,8.20
2018-09-26T02:08:38.388Z,8.20
2018-09-26T02:09:13.192Z,8.20
2018-09-26T02:09:47.574Z,8.20
2018-09-26T02:10:21.776Z,8.20
2018-09-26T02:10:55.931Z,8.20
2018-09-26T02:11:30.114Z,8.20
2018-09-26T02:12:04.930Z,8.20
2018-09-26T02:12:39.137Z,8.20
2018-09-26T02:13:13.315Z,8.20
2018-09-26T02:13:47.435Z,8.20
2018-09-26T02:14:21.556Z,8.30
2018-09-26T02:14:55.708Z,8.30
2018-09-26T02:15:30.228Z,8.30
2018-09-26T02:16:04.410Z,8.30
2018-09-26T02:16:38.876Z,8.30
2018-09-26T02:17:13.362Z,8.30
2018-09-26T02:17:47.558Z,8.30
2018-09-26T02:18:21.936Z,8.30
2018-09-26T02:18:56.068Z,8.30
2018-09-26T02:19:30.235Z,8.30
2018-09-26T02:20:04.391Z,8.30
2018-09-26T02:20:38.876Z,8.40
2018-09-26T02:21:13.096Z,8.40
2018-09-26T02:21:47.291Z,8.40
2018-09-26T02:22:21.774Z,8.40
2018-09-26T02:22:55.958Z,8.40
2018-09-26T02:23:30.136Z,8.40
2018-09-26T02:24:04.463Z,8.40
2018-09-26T02:24:38.602Z,8.40
2018-09-26T02:25:13.172Z,8.50
2018-09-26T02:25:47.312Z,8.40
2018-09-26T02:26:21.482Z,8.40
2018-09-26T02:26:55.656Z,8.50
2018-09-26T02:27:30.132Z,8.50
2018-09-26T02:28:04.290Z,8.50
2018-09-26T02:28:38.488Z,8.50
2018-09-26T02:29:12.626Z,8.50
2018-09-26T02:29:46.864Z,8.50
2018-09-26T02:30:21.039Z,8.50
2018-09-26T02:30:55.536Z,8.50
2018-09-26T02:31:29.680Z,8.50
2018-09-26T02:32:04.210Z,8.50
2018-09-26T02:32:38.344Z,8.50
2018-09-26T02:33:12.489Z,8.50
2018-09-26T02:33:46.663Z,8.50
2018-09-26T02:34:20.786Z,8.50
2018-09-26T02:34:55.266Z,8.50
2018-09-26T02:35:29.716Z,8.50
2018-09-26T02:36:03.838Z,8.50
2018-09-26T02:36:38.288Z,8.50
2018-09-26T02:37:12.754Z,8.50
2018-09-26T02:37:46.895Z,8.50
2018-09-26T02:38:21.044Z,8.50
2018-09-26T02:38:55.194Z,8.50
2018-09-26T02:39:29.356Z,8.50
2018-09-26T02:40:03.503Z,8.50
2018-09-26T02:40:37.664Z,8.50
2018-09-26T02:41:11.796Z,8.50
2018-09-26T02:41:45.955Z,8.50
2018-09-26T02:42:20.087Z,8.50
2018-09-26T02:42:54.223Z,8.50
2018-09-26T02:43:28.388Z,8.50
2018-09-26T02:44:03.242Z,8.50
2018-09-26T02:44:37.722Z,8.60
2018-09-26T02:45:12.290Z,8.50
2018-09-26T02:45:46.748Z,8.50
2018-09-26T02:46:21.216Z,8.50
2018-09-26T02:46:55.354Z,8.60
2018-09-26T02:47:29.512Z,8.60
2018-09-26T02:48:03.641Z,8.60
2018-09-26T02:48:43.309Z,8.60
2018-09-26T02:49:17.500Z,8.60
2018-09-26T02:49:51.668Z,8.60
2018-09-26T02:50:26.193Z,8.60
2018-09-26T02:51:00.407Z,8.60
2018-09-26T02:51:36.336Z,8.60
2018-09-26T02:52:10.498Z,8.60
2018-09-26T02:52:44.884Z,8.60
2018-09-26T02:53:19.008Z,8.60
2018-09-26T02:53:53.482Z,8.60
2018-09-26T02:54:27.984Z,8.60
2018-09-26T02:55:02.123Z,8.60
2018-09-26T02:55:36.353Z,8.60
2018-09-26T02:56:10.628Z,8.60
2018-09-26T02:56:44.870Z,8.60
2018-09-26T02:57:18.725Z,8.60
2018-09-26T02:57:52.897Z,8.60
2018-09-26T02:58:27.023Z,8.60
2018-09-26T02:59:01.212Z,8.70
2018-09-26T02:59:35.426Z,8.70
2018-09-26T03:00:10.276Z,8.70
2018-09-26T03:00:44.707Z,8.70
2018-09-26T03:01:18.860Z,8.70
2018-09-26T03:01:53.328Z,8.70
2018-09-26T03:02:27.493Z,8.70
2018-09-26T03:03:01.617Z,8.70
2018-09-26T03:03:35.744Z,8.70
2018-09-26T03:04:09.883Z,8.70
2018-09-26T03:04:44.037Z,8.70
2018-09-26T03:05:18.156Z,8.70
2018-09-26T03:05:52.507Z,8.70
2018-09-26T03:06:26.638Z,8.70
2018-09-26T03:07:00.534Z,8.70
2018-09-26T03:07:34.677Z,8.70
2018-09-26T03:08:09.156Z,8.70
2018-09-26T03:08:43.319Z,8.70
2018-09-26T03:09:17.443Z,8.70
2018-09-26T03:09:51.920Z,8.70
2018-09-26T03:10:26.418Z,8.70
2018-09-26T03:11:00.569Z,8.70
2018-09-26T03:11:35.202Z,8.70
2018-09-26T03:12:09.357Z,8.70
2018-09-26T03:12:43.828Z,8.70
2018-09-26T03:13:18.006Z,8.70
2018-09-26T03:13:52.130Z,8.70
2018-09-26T03:14:26.606Z,8.80
2018-09-26T03:15:00.750Z,8.70
2018-09-26T03:15:35.277Z,8.70
2018-09-26T03:16:09.484Z,8.70
2018-09-26T03:16:43.924Z,8.70
2018-09-26T03:17:18.057Z,8.70
2018-09-26T03:17:51.901Z,8.70
2018-09-26T03:18:26.399Z,8.70
2018-09-26T03:19:00.585Z,8.70
2018-09-26T03:19:34.757Z,8.70
2018-09-26T03:20:08.975Z,8.70
2018-09-26T03:20:43.440Z,8.70
2018-09-26T03:21:17.894Z,8.70
2018-09-26T03:21:52.388Z,8.70
2018-09-26T03:22:26.641Z,8.70
2018-09-26T03:23:00.495Z,8.70
2018-09-26T03:23:34.635Z,8.70
2018-09-26T03:24:08.493Z,8.70
2018-09-26T03:24:42.602Z,8.70
2018-09-26T03:25:16.800Z,8.70
2018-09-26T03:25:51.287Z,8.70
2018-09-26T03:26:25.749Z,8.70
2018-09-26T03:27:00.227Z,8.70
2018-09-26T03:27:34.367Z,8.70
2018-09-26T03:28:08.838Z,8.70
2018-09-26T03:28:43.323Z,8.70
2018-09-26T03:29:17.449Z,8.70
2018-09-26T03:29:51.557Z,8.70
2018-09-26T03:30:25.749Z,8.70
2018-09-26T03:30:59.987Z,8.70
2018-09-26T03:31:34.124Z,8.70
2018-09-26T03:32:08.272Z,8.70
2018-09-26T03:32:42.697Z,8.80
2018-09-26T03:33:16.842Z,8.70
2018-09-26T03:33:51.034Z,8.70
2018-09-26T03:34:25.644Z,8.70
2018-09-26T03:34:59.771Z,8.70
2018-09-26T03:35:34.677Z,8.80
2018-09-26T03:36:08.876Z,8.80
2018-09-26T03:36:43.377Z,8.80
2018-09-26T03:37:17.498Z,8.80
2018-09-26T03:37:51.622Z,8.80
2018-09-26T03:38:25.820Z,8.80
2018-09-26T03:39:00.135Z,8.80
2018-09-26T03:39:34.276Z,8.80
2018-09-26T03:40:08.789Z,8.80
2018-09-26T03:40:43.299Z,8.80
2018-09-26T03:41:17.424Z,8.80
2018-09-26T03:41:51.580Z,8.80
2018-09-26T03:42:26.055Z,8.80
2018-09-26T03:43:00.275Z,8.90
2018-09-26T03:43:34.402Z,8.90
2018-09-26T03:44:08.568Z,8.90
2018-09-26T03:44:42.726Z,8.90
2018-09-26T03:45:16.915Z,8.90
2018-09-26T03:45:51.114Z,8.90
2018-09-26T03:46:24.992Z,8.90
2018-09-26T03:46:59.156Z,8.90
2018-09-26T03:47:33.260Z,8.90
2018-09-26T03:48:07.388Z,8.90
2018-09-26T03:48:41.523Z,8.90
2018-09-26T03:49:15.660Z,8.90
2018-09-26T03:49:49.743Z,8.90
2018-09-26T03:50:23.889Z,8.90
2018-09-26T03:50:58.422Z,8.90
2018-09-26T03:51:32.529Z,8.90
2018-09-26T03:52:07.334Z,8.90
2018-09-26T03:52:41.206Z,9.00
2018-09-26T03:53:15.391Z,8.90
2018-09-26T03:53:49.528Z,9.00
2018-09-26T03:54:23.695Z,9.00
2018-09-26T03:54:58.154Z,8.90
2018-09-26T03:55:32.323Z,8.90
2018-09-26T03:56:06.824Z,9.00
2018-09-26T03:56:40.967Z,9.00
2018-09-26T03:57:15.150Z,9.00
2018-09-26T03:57:49.269Z,9.00
2018-09-26T03:58:23.426Z,9.00
2018-09-26T03:58:57.583Z,9.00
2018-09-26T03:59:31.723Z,9.00
2018-09-26T04:00:05.912Z,9.00
2018-09-26T04:00:40.066Z,9.00
2018-09-26T04:01:14.543Z,9.00
2018-09-26T04:01:48.734Z,9.00
2018-09-26T04:02:22.928Z,9.00
2018-09-26T04:02:57.058Z,9.00
2018-09-26T04:03:31.211Z,9.00
2018-09-26T04:04:05.688Z,9.00
2018-09-26T04:04:39.828Z,9.00
2018-09-26T04:05:13.987Z,9.00
2018-09-26T04:05:48.149Z,9.00
2018-09-26T04:06:22.335Z,9.00
2018-09-26T04:06:56.242Z,9.00
2018-09-26T04:07:30.399Z,9.00
2018-09-26T04:08:04.284Z,9.00
2018-09-26T04:08:38.460Z,9.00
2018-09-26T04:09:12.584Z,9.00
2018-09-26T04:09:46.724Z,9.00
2018-09-26T04:10:20.881Z,9.00
2018-09-26T04:10:55.146Z,9.00
2018-09-26T04:11:29.329Z,9.00
2018-09-26T04:12:03.486Z,9.00
2018-09-26T04:12:37.752Z,9.00
2018-09-26T04:13:12.470Z,9.10
2018-09-26T04:13:47.052Z,9.00
2018-09-26T04:14:21.214Z,9.00
2018-09-26T04:14:55.492Z,9.10
2018-09-26T04:15:29.875Z,9.10
2018-09-26T04:16:04.236Z,9.10
2018-09-26T04:16:38.436Z,9.10
2018-09-26T04:17:12.629Z,9.10
2018-09-26T04:17:46.785Z,9.10
2018-09-26T04:18:22.439Z,9.10
2018-09-26T04:18:56.613Z,9.10
2018-09-26T04:19:30.791Z,9.10
2018-09-26T04:20:05.051Z,9.10
2018-09-26T04:20:39.231Z,9.10
2018-09-26T04:21:13.383Z,9.10
2018-09-26T04:21:47.622Z,9.10
2018-09-26T04:22:21.789Z,9.10
2018-09-26T04:22:55.676Z,9.10
2018-09-26T04:23:29.872Z,9.10
2018-09-26T04:24:04.383Z,9.10
2018-09-26T04:24:38.284Z,9.10
2018-09-26T04:25:12.509Z,9.10
2018-09-26T04:25:46.939Z,9.10
2018-09-26T04:26:20.862Z,9.10
2018-09-26T04:26:55.550Z,9.10
2018-09-26T04:27:29.710Z,9.10
2018-09-26T04:28:03.994Z,9.00
2018-09-26T04:28:38.164Z,9.10
2018-09-26T04:29:12.339Z,9.10
2018-09-26T04:29:47.043Z,9.10
2018-09-26T04:30:21.216Z,9.10
2018-09-26T04:30:55.544Z,9.10
2018-09-26T04:31:30.001Z,9.10
2018-09-26T04:32:04.663Z,9.10
2018-09-26T04:32:38.887Z,9.10
2018-09-26T04:33:13.515Z,9.10
2018-09-26T04:33:47.687Z,9.10
2018-09-26T04:34:22.080Z,9.10
2018-09-26T04:34:56.453Z,9.10
2018-09-26T04:35:30.930Z,9.10
2018-09-26T04:36:05.527Z,9.10
2018-09-26T04:36:39.661Z,9.10
2018-09-26T04:37:13.900Z,9.20
2018-09-26T04:37:48.099Z,9.20
2018-09-26T04:38:22.100Z,9.20
2018-09-26T04:38:56.387Z,9.20
2018-09-26T04:39:30.603Z,9.20
2018-09-26T04:40:05.139Z,9.20
2018-09-26T04:40:39.669Z,9.20
2018-09-26T04:41:13.823Z,9.20
2018-09-26T04:41:47.968Z,9.20
2018-09-26T04:42:22.129Z,9.20
2018-09-26T04:42:56.616Z,9.20
2018-09-26T04:43:30.777Z,9.20
2018-09-26T04:44:05.557Z,9.20
2018-09-26T04:44:39.449Z,9.20
2018-09-26T04:45:13.335Z,9.20
2018-09-26T04:45:47.541Z,9.20
2018-09-26T04:46:21.729Z,9.20
2018-09-26T04:46:56.251Z,9.20
2018-09-26T04:47:30.465Z,9.20
2018-09-26T04:48:05.154Z,9.30
2018-09-26T04:48:39.345Z,9.30
2018-09-26T04:49:13.469Z,9.30
2018-09-26T04:49:47.631Z,9.30
2018-09-26T04:50:22.119Z,9.30
2018-09-26T04:50:56.338Z,9.30
2018-09-26T04:51:30.373Z,9.30
2018-09-26T04:52:04.986Z,9.30
2018-09-26T04:52:39.235Z,9.30
2018-09-26T04:53:13.379Z,9.30
2018-09-26T04:53:47.567Z,9.30
2018-09-26T04:54:21.445Z,9.30
2018-09-26T04:54:56.613Z,9.30
2018-09-26T04:55:31.127Z,9.30
2018-09-26T04:56:05.337Z,9.30
2018-09-26T04:56:39.511Z,9.30
2018-09-26T04:57:13.701Z,9.30
2018-09-26T04:57:47.912Z,9.30
2018-09-26T04:58:22.284Z,9.30
2018-09-26T04:58:56.697Z,9.30
2018-09-26T04:59:30.845Z,9.30
2018-09-26T05:01:08.223Z,9.30
2018-09-26T05:01:42.499Z,9.30
2018-09-26T05:02:16.511Z,9.30
2018-09-26T05:02:51.069Z,9.30
2018-09-26T05:03:25.219Z,9.30
2018-09-26T05:03:59.553Z,9.30
2018-09-26T05:04:33.710Z,9.30
2018-09-26T05:05:07.881Z,9.30
2018-09-26T05:05:42.039Z,9.30
2018-09-26T05:06:16.231Z,9.40
2018-09-26T05:06:50.385Z,9.40
2018-09-26T05:07:24.836Z,9.40
2018-09-26T05:07:59.052Z,9.40
2018-09-26T05:08:33.601Z,9.40
2018-09-26T05:09:09.545Z,9.40
2018-09-26T05:09:43.677Z,9.40
2018-09-26T05:10:17.863Z,9.40
2018-09-26T05:10:51.996Z,9.40
2018-09-26T05:11:26.773Z,9.40
2018-09-26T05:12:01.288Z,9.50
2018-09-26T05:12:35.504Z,9.50
2018-09-26T05:13:09.696Z,9.50
2018-09-26T05:13:43.953Z,9.50
2018-09-26T05:14:17.875Z,9.50
2018-09-26T05:14:52.104Z,9.50
2018-09-26T05:15:26.425Z,9.50
2018-09-26T05:16:00.767Z,9.50
2018-09-26T05:16:34.995Z,9.50
2018-09-26T05:17:09.255Z,9.50
2018-09-26T05:17:43.178Z,9.50
2018-09-26T05:18:17.393Z,9.50
2018-09-26T05:18:51.946Z,9.50
2018-09-26T05:19:26.136Z,9.60
2018-09-26T05:20:00.643Z,9.50
2018-09-26T05:20:34.826Z,9.60
2018-09-26T05:21:08.945Z,9.60
2018-09-26T05:21:43.152Z,9.60
2018-09-26T05:22:17.393Z,9.60
2018-09-26T05:22:51.604Z,9.60
2018-09-26T05:23:25.958Z,9.60
2018-09-26T05:24:00.187Z,9.60
2018-09-26T05:24:34.537Z,9.60
2018-09-26T05:25:08.699Z,9.60
2018-09-26T05:25:43.187Z,9.60
2018-09-26T05:26:17.333Z,9.60
2018-09-26T05:26:51.491Z,9.60
2018-09-26T05:27:25.639Z,9.70
2018-09-26T05:27:59.791Z,9.70
2018-09-26T05:28:33.941Z,9.60
2018-09-26T05:29:08.486Z,9.60
2018-09-26T05:29:42.349Z,9.70
2018-09-26T05:30:16.523Z,9.70
2018-09-26T05:30:50.921Z,9.70
2018-09-26T05:31:25.261Z,9.70
2018-09-26T05:31:59.817Z,9.70
2018-09-26T05:32:33.975Z,9.70
2018-09-26T05:33:08.177Z,9.70
2018-09-26T05:33:42.349Z,9.70
2018-09-26T05:34:16.503Z,9.70
2018-09-26T05:34:50.675Z,9.70
2018-09-26T05:35:24.805Z,9.70
2018-09-26T05:35:58.961Z,9.70
2018-09-26T05:36:33.115Z,9.70
2018-09-26T05:37:07.937Z,9.70
2018-09-26T05:37:42.073Z,9.80
2018-09-26T05:38:16.561Z,9.80
2018-09-26T05:38:50.746Z,9.80
2018-09-26T05:39:24.894Z,9.80
2018-09-26T05:39:59.057Z,9.80
2018-09-26T05:40:32.965Z,9.80
2018-09-26T05:41:07.525Z,9.80
2018-09-26T05:41:41.720Z,9.80
2018-09-26T05:42:16.113Z,9.80
2018-09-26T05:42:50.261Z,9.80
2018-09-26T05:43:24.412Z,9.80
2018-09-26T05:43:58.565Z,9.80
2018-09-26T05:44:32.724Z,9.90
2018-09-26T05:45:07.261Z,9.80
2018-09-26T05:45:41.731Z,9.90
2018-09-26T05:46:15.895Z,9.90
2018-09-26T05:46:50.048Z,9.80
2018-09-26T05:47:24.525Z,9.90
2018-09-26T05:47:58.700Z,9.90
2018-09-26T05:48:32.893Z,9.90
2018-09-26T05:49:07.068Z,9.90
2018-09-26T05:49:41.317Z,9.90
2018-09-26T05:50:15.577Z,9.90
2018-09-26T05:50:49.919Z,9.90
2018-09-26T05:51:24.146Z,9.90
2018-09-26T05:51:58.321Z,9.90
2018-09-26T05:52:32.633Z,9.90
2018-09-26T05:53:08.117Z,9.90
2018-09-26T05:53:42.262Z,9.90
2018-09-26T05:54:16.479Z,9.90
2018-09-26T05:54:50.971Z,9.90
2018-09-26T05:55:25.152Z,9.90
2018-09-26T05:55:59.358Z,10.00
2018-09-26T05:56:33.523Z,10.00
2018-09-26T05:57:08.119Z,10.00
2018-09-26T05:57:42.255Z,10.00
2018-09-26T05:58:16.473Z,10.00
2018-09-26T05:58:50.638Z,10.00
2018-09-26T05:59:24.961Z,10.00
2018-09-26T05:59:59.324Z,10.10
2018-09-26T06:00:33.503Z,10.10
2018-09-26T06:01:07.371Z,10.10
2018-09-26T06:01:41.527Z,10.10
2018-09-26T06:02:15.683Z,10.10
2018-09-26T06:02:49.585Z,10.20
2018-09-26T06:03:23.511Z,10.20
2018-09-26T06:03:57.665Z,10.20
2018-09-26T06:04:31.828Z,10.20
2018-09-26T06:05:06.036Z,10.20
2018-09-26T06:05:40.134Z,10.20
2018-09-26T06:06:14.313Z,10.30
2018-09-26T06:06:48.805Z,10.30
2018-09-26T06:07:22.994Z,10.30
2018-09-26T06:07:57.173Z,10.30
2018-09-26T06:08:31.033Z,10.40
2018-09-26T06:09:08.135Z,10.40
2018-09-26T06:09:42.091Z,10.40
2018-09-26T06:10:16.261Z,10.40
2018-09-26T06:10:50.737Z,10.40
2018-09-26T06:11:24.605Z,10.40
2018-09-26T06:11:58.529Z,10.40
2018-09-26T06:12:32.694Z,10.40
2018-09-26T06:13:06.933Z,10.40
2018-09-26T06:13:41.244Z,10.40
2018-09-26T06:14:15.375Z,10.40
2018-09-26T06:14:49.297Z,10.40
2018-09-26T06:15:23.831Z,10.40
2018-09-26T06:15:57.990Z,10.40
2018-09-26T06:16:31.867Z,10.50
2018-09-26T06:17:06.485Z,10.50
2018-09-26T06:17:40.377Z,10.50
2018-09-26T06:18:14.858Z,10.50
2018-09-26T06:18:48.770Z,10.50
2018-09-26T06:19:22.843Z,10.50
2018-09-26T06:19:57.054Z,10.50
2018-09-26T06:20:31.885Z,10.50
2018-09-26T06:21:06.493Z,10.50
2018-09-26T06:21:40.659Z,10.50
2018-09-26T06:22:14.540Z,10.50
2018-09-26T06:22:48.745Z,10.60
2018-09-26T06:23:22.649Z,10.60
2018-09-26T06:23:56.783Z,10.60
2018-09-26T06:24:30.691Z,10.60
2018-09-26T06:25:05.504Z,10.60
2018-09-26T06:25:39.935Z,10.60
2018-09-26T06:26:14.297Z,10.70
2018-09-26T06:26:48.659Z,10.70
2018-09-26T06:27:22.532Z,10.70
2018-09-26T06:27:57.332Z,10.70
2018-09-26T06:28:31.225Z,10.70
2018-09-26T06:29:05.093Z,10.70
2018-09-26T06:29:39.346Z,10.70
2018-09-26T06:30:13.253Z,10.70
2018-09-26T06:30:47.125Z,10.70
2018-09-26T06:31:21.005Z,10.70
2018-09-26T06:31:55.157Z,10.70
2018-09-26T06:32:29.033Z,10.70
2018-09-26T06:33:03.295Z,10.70
2018-09-26T06:33:37.791Z,10.70
2018-09-26T06:34:11.949Z,10.70
2018-09-26T06:34:45.821Z,10.70
2018-09-26T06:35:19.741Z,10.70
2018-09-26T06:35:53.981Z,10.70
2018-09-26T06:36:28.129Z,10.80
2018-09-26T06:37:05.359Z,10.80
2018-09-26T06:37:39.261Z,10.80
2018-09-26T06:38:13.142Z,10.80
2018-09-26T06:38:47.992Z,10.80
2018-09-26T06:39:22.161Z,10.80
2018-09-26T06:39:56.065Z,10.80
2018-09-26T06:40:30.083Z,10.80
2018-09-26T06:41:04.423Z,10.90
2018-09-26T06:41:38.335Z,10.90
2018-09-26T06:42:12.210Z,10.90
2018-09-26T06:42:46.607Z,10.90
2018-09-26T06:43:20.933Z,10.90
2018-09-26T06:43:55.318Z,11.00
2018-09-26T06:44:29.516Z,11.00
2018-09-26T06:45:03.997Z,11.00
2018-09-26T06:45:38.322Z,11.00
2018-09-26T06:46:12.288Z,11.00
2018-09-26T06:46:46.957Z,11.00
2018-09-26T06:47:21.138Z,11.00
2018-09-26T06:47:55.172Z,11.00
2018-09-26T06:48:29.277Z,11.10
2018-09-26T06:49:03.206Z,11.10
2018-09-26T06:49:37.438Z,11.10
2018-09-26T06:50:11.925Z,11.10
2018-09-26T06:50:45.904Z,11.10
2018-09-26T06:51:20.133Z,11.10
2018-09-26T06:51:54.283Z,11.20
2018-09-26T06:52:35.111Z,11.20
2018-09-26T06:53:09.331Z,11.20
2018-09-26T06:53:43.196Z,11.30
2018-09-26T06:54:17.090Z,11.30
2018-09-26T06:54:50.985Z,11.30
2018-09-26T06:55:25.098Z,11.30
2018-09-26T06:55:59.618Z,11.30
2018-09-26T06:56:33.488Z,11.40
2018-09-26T06:57:07.378Z,11.40
2018-09-26T06:57:41.222Z,11.40
2018-09-26T06:58:15.216Z,11.40
2018-09-26T06:58:49.115Z,11.50
2018-09-26T06:59:22.987Z,11.50
2018-09-26T06:59:56.871Z,11.50
2018-09-26T07:00:30.750Z,11.50
2018-09-26T07:01:04.647Z,11.50
2018-09-26T07:01:38.522Z,11.60
2018-09-26T07:02:12.457Z,11.60
2018-09-26T07:02:46.400Z,11.60
2018-09-26T07:03:20.291Z,11.60
2018-09-26T07:03:54.457Z,11.60
2018-09-26T07:04:28.368Z,11.60
2018-09-26T07:05:02.292Z,11.60
2018-09-26T07:05:36.469Z,11.60
2018-09-26T07:06:10.397Z,11.60
2018-09-26T07:06:44.274Z,11.60
2018-09-26T07:07:18.160Z,11.60
2018-09-26T07:07:52.028Z,11.60
2018-09-26T07:08:25.956Z,11.60
2018-09-26T07:08:59.850Z,11.60
2018-09-26T07:09:33.806Z,11.70
2018-09-26T07:10:08.248Z,11.60
2018-09-26T07:10:42.168Z,11.60
2018-09-26T07:11:16.317Z,11.60
2018-09-26T07:11:50.186Z,11.60
2018-09-26T07:12:24.064Z,11.70
2018-09-26T07:12:57.977Z,11.70
2018-09-26T07:13:32.443Z,11.70
2018-09-26T07:14:06.358Z,11.70
2018-09-26T07:14:40.228Z,11.70
2018-09-26T07:15:14.122Z,11.70
2018-09-26T07:15:48.004Z,11.70
2018-09-26T07:16:21.923Z,11.70
2018-09-26T07:16:55.794Z,11.80
2018-09-26T07:17:29.673Z,11.80
2018-09-26T07:18:03.886Z,11.80
2018-09-26T07:18:37.907Z,11.80
2018-09-26T07:19:12.124Z,11.80
2018-09-26T07:19:46.024Z,11.80
2018-09-26T07:20:20.239Z,11.90
2018-09-26T07:20:54.398Z,11.90
2018-09-26T07:21:28.597Z,11.90
2018-09-26T07:22:02.502Z,11.90
2018-09-26T07:22:36.351Z,11.90
2018-09-26T07:23:10.242Z,11.90
2018-09-26T07:23:44.488Z,11.90
2018-09-26T07:24:18.342Z,12.00
2018-09-26T07:24:52.236Z,12.00
2018-09-26T07:25:26.134Z,12.00
2018-09-26T07:26:00.084Z,12.00
2018-09-26T07:26:34.028Z,12.00
2018-09-26T07:27:08.231Z,12.00
2018-09-26T07:27:42.439Z,12.00
2018-09-26T07:28:17.017Z,12.00
2018-09-26T07:28:50.873Z,12.00
2018-09-26T07:29:24.718Z,12.10
2018-09-26T07:29:58.580Z,12.10
2018-09-26T07:30:32.710Z,12.10
2018-09-26T07:31:06.909Z,12.10
2018-09-26T07:31:41.493Z,12.10
2018-09-26T07:32:15.801Z,12.10
2018-09-26T07:32:49.851Z,12.10
2018-09-26T07:33:23.718Z,12.10
2018-09-26T07:33:57.570Z,12.10
2018-09-26T07:34:38.474Z,12.20
2018-09-26T07:35:12.627Z,12.20
2018-09-26T07:35:46.485Z,12.20
2018-09-26T07:36:20.390Z,12.20
2018-09-26T07:36:54.330Z,12.20